Terminal Aerodrome Forecast
Issued by NWS Sioux Falls, SD

Home | Current Version | Previous Version | Graphics & Text | Print | Product List | Glossary On
Versions: 1 2 3 4 5 6 7 8 9 10 11 12 13 14 15 16 17
000
FTUS43 KFSD 210526
TAFSUX
TAF
KSUX 210526Z 2106/2206 03005KT P6SM OVC200
     FM211000 02010KT 6SM -SN OVC060
     FM211400 03011KT 5SM -RASN OVC030
     FM212100 03010KT P6SM OVC060
     FM220200 05006KT P6SM BKN100=

USA.gov is the U.S. government's official web portal to all federal, state and local government web resources and services.